AUA824 LGTS-LOWW
Flight info
| Callsign | AUA824 |
|---|---|
| Flight time | 1h 31m |
| Altitude | 36000 |
| Route | FSK1E FSK UN128 RUGAS DCT RAXAD DCT PARAK DCT BALUX DCT TORNO DCT NATEX NATEX2W |
| Aircraft | A320/M-SDE3FGHIRWY/LB1 |
Departure
| Time | 2026-05-04 09:07 |
|---|---|
| Airport | Thessaloniki Macedonia International Airport (LGTS) |
Arrival
| Time | 2026-05-04 10:39 |
|---|---|
| Airport | Vienna International Airport (LOWW) |
| Time | Latitude | Longitude | Altitude | Speed | Heading |
|---|---|---|---|---|---|
| 2026-05-04 08:25 | 40.52322 | 22.97576 | 29 ft | 0 kts | 45° |
| 2026-05-04 08:46 | 40.52322 | 22.97575 | 28 ft | 0 kts | 45° |
| 2026-05-04 08:57 | 40.52307 | 22.97476 | 28 ft | 0 kts | 135° |
| 2026-05-04 09:01 | 40.52222 | 22.97588 | 28 ft | 9 kts | 135° |
| 2026-05-04 09:01 | 40.52177 | 22.97636 | 28 ft | 8 kts | 148° |
| 2026-05-04 09:01 | 40.52138 | 22.97671 | 28 ft | 6 kts | 140° |
| 2026-05-04 09:01 | 40.52107 | 22.97710 | 28 ft | 7 kts | 136° |
| 2026-05-04 09:02 | 40.52065 | 22.97763 | 29 ft | 14 kts | 135° |
| 2026-05-04 09:02 | 40.51996 | 22.97878 | 29 ft | 16 kts | 111° |
| 2026-05-04 09:02 | 40.51971 | 22.98008 | 29 ft | 14 kts | 104° |
| 2026-05-04 09:02 | 40.51949 | 22.98123 | 29 ft | 12 kts | 104° |
| 2026-05-04 09:03 | 40.51930 | 22.98224 | 29 ft | 11 kts | 103° |
| 2026-05-04 09:03 | 40.51914 | 22.98314 | 28 ft | 10 kts | 105° |
| 2026-05-04 09:03 | 40.51896 | 22.98405 | 28 ft | 12 kts | 104° |
| 2026-05-04 09:03 | 40.51876 | 22.98513 | 28 ft | 11 kts | 103° |
| 2026-05-04 09:04 | 40.51858 | 22.98608 | 28 ft | 10 kts | 104° |
| 2026-05-04 09:04 | 40.51840 | 22.98690 | 28 ft | 8 kts | 119° |
| 2026-05-04 09:04 | 40.51793 | 22.98705 | 28 ft | 6 kts | 189° |
| 2026-05-04 09:04 | 40.51757 | 22.98694 | 29 ft | 4 kts | 191° |
| 2026-05-04 09:05 | 40.51732 | 22.98687 | 29 ft | 4 kts | 194° |
| 2026-05-04 09:05 | 40.51698 | 22.98673 | 29 ft | 5 kts | 197° |
| 2026-05-04 09:05 | 40.51681 | 22.98650 | 29 ft | 6 kts | 264° |
| 2026-05-04 09:05 | 40.51686 | 22.98618 | 28 ft | 0 kts | 283° |
| 2026-05-04 09:07 | 40.52976 | 22.92362 | 1899 ft | 161 kts | 289° |
| 2026-05-04 09:08 | 40.53331 | 22.90838 | 2135 ft | 184 kts | 289° |
| 2026-05-04 09:08 | 40.53728 | 22.89156 | 2486 ft | 203 kts | 289° |
| 2026-05-04 09:08 | 40.54164 | 22.87241 | 2724 ft | 232 kts | 288° |
| 2026-05-04 09:08 | 40.54642 | 22.85106 | 3189 ft | 253 kts | 288° |
| 2026-05-04 09:09 | 40.55137 | 22.82829 | 3941 ft | 260 kts | 287° |
| 2026-05-04 09:09 | 40.55628 | 22.80547 | 4905 ft | 260 kts | 289° |
| 2026-05-04 09:09 | 40.56488 | 22.78488 | 5703 ft | 260 kts | 318° |
| 2026-05-04 09:09 | 40.58052 | 22.77404 | 6492 ft | 261 kts | 352° |
| 2026-05-04 09:10 | 40.59847 | 22.77644 | 7244 ft | 263 kts | 22° |
| 2026-05-04 09:10 | 40.61417 | 22.78902 | 8067 ft | 266 kts | 35° |
| 2026-05-04 09:10 | 40.62876 | 22.80422 | 8951 ft | 267 kts | 40° |
| 2026-05-04 09:10 | 40.64203 | 22.82096 | 9813 ft | 269 kts | 46° |
| 2026-05-04 09:11 | 40.65418 | 22.84007 | 10554 ft | 274 kts | 52° |
| 2026-05-04 09:11 | 40.66463 | 22.86134 | 11313 ft | 278 kts | 59° |
| 2026-05-04 09:11 | 40.67337 | 22.88518 | 11646 ft | 301 kts | 65° |
| 2026-05-04 09:11 | 40.68051 | 22.91212 | 11917 ft | 321 kts | 68° |
| 2026-05-04 09:12 | 40.68958 | 22.93974 | 12237 ft | 336 kts | 60° |
| 2026-05-04 09:12 | 40.70254 | 22.96578 | 12679 ft | 343 kts | 44° |
| 2026-05-04 09:14 | 40.86942 | 22.98280 | 16870 ft | 369 kts | 1° |
| 2026-05-04 09:14 | 40.89497 | 22.98365 | 17401 ft | 374 kts | 2° |
| 2026-05-04 09:14 | 40.92120 | 22.98474 | 17937 ft | 379 kts | 2° |
| 2026-05-04 09:14 | 40.94779 | 22.98589 | 18460 ft | 384 kts | 2° |
| 2026-05-04 09:15 | 40.97470 | 22.98700 | 18956 ft | 388 kts | 2° |
| 2026-05-04 09:15 | 41.00183 | 22.98804 | 19447 ft | 392 kts | 2° |
| 2026-05-04 09:15 | 41.02908 | 22.98905 | 19943 ft | 395 kts | 2° |
| 2026-05-04 09:15 | 41.05637 | 22.98990 | 20435 ft | 399 kts | 0° |
| 2026-05-04 09:17 | 41.25948 | 22.85214 | 24100 ft | 427 kts | 328° |
| 2026-05-04 09:18 | 41.28432 | 22.83056 | 24524 ft | 427 kts | 329° |
| 2026-05-04 09:18 | 41.30916 | 22.80898 | 24971 ft | 426 kts | 329° |
| 2026-05-04 09:18 | 41.33437 | 22.78915 | 25382 ft | 424 kts | 336° |
| 2026-05-04 09:18 | 41.36139 | 22.77372 | 25795 ft | 423 kts | 340° |
| 2026-05-04 09:19 | 41.38865 | 22.75878 | 26220 ft | 423 kts | 339° |
| 2026-05-04 09:19 | 41.41586 | 22.74376 | 26626 ft | 422 kts | 339° |
| 2026-05-04 09:19 | 41.44305 | 22.72871 | 27007 ft | 423 kts | 339° |
| 2026-05-04 09:19 | 41.46991 | 22.71381 | 27367 ft | 423 kts | 339° |
| 2026-05-04 09:20 | 41.49716 | 22.69870 | 27712 ft | 423 kts | 339° |
| 2026-05-04 09:20 | 41.52439 | 22.68361 | 28050 ft | 424 kts | 339° |
| 2026-05-04 09:20 | 41.55169 | 22.66849 | 28372 ft | 424 kts | 339° |
| 2026-05-04 09:20 | 41.57904 | 22.65330 | 28671 ft | 425 kts | 339° |
| 2026-05-04 09:21 | 41.60602 | 22.63829 | 28963 ft | 426 kts | 339° |
| 2026-05-04 09:21 | 41.63341 | 22.62302 | 29247 ft | 426 kts | 339° |
| 2026-05-04 09:21 | 41.66087 | 22.60770 | 29522 ft | 427 kts | 339° |
| 2026-05-04 09:21 | 41.68826 | 22.59240 | 29795 ft | 427 kts | 339° |
| 2026-05-04 09:22 | 41.71571 | 22.57705 | 30175 ft | 425 kts | 339° |
| 2026-05-04 09:22 | 41.74261 | 22.56201 | 30480 ft | 423 kts | 339° |
| 2026-05-04 09:22 | 41.76971 | 22.54685 | 30764 ft | 421 kts | 340° |
| 2026-05-04 09:22 | 41.79678 | 22.53168 | 31055 ft | 420 kts | 340° |
| 2026-05-04 09:23 | 41.82370 | 22.51660 | 31328 ft | 419 kts | 340° |
| 2026-05-04 09:23 | 41.85067 | 22.50150 | 31637 ft | 418 kts | 340° |
| 2026-05-04 09:23 | 41.87713 | 22.48664 | 31935 ft | 417 kts | 340° |
| 2026-05-04 09:23 | 41.90385 | 22.47163 | 32241 ft | 415 kts | 340° |
| 2026-05-04 09:25 | 42.08897 | 22.36734 | 34228 ft | 409 kts | 339° |
| 2026-05-04 09:25 | 42.11480 | 22.35266 | 34452 ft | 408 kts | 339° |
| 2026-05-04 09:26 | 42.14108 | 22.33774 | 34677 ft | 408 kts | 340° |
| 2026-05-04 09:26 | 42.16738 | 22.32282 | 34868 ft | 409 kts | 339° |
| 2026-05-04 09:26 | 42.19361 | 22.30796 | 35071 ft | 409 kts | 339° |
| 2026-05-04 09:26 | 42.21954 | 22.29323 | 35257 ft | 409 kts | 339° |
| 2026-05-04 09:27 | 42.24584 | 22.27828 | 35430 ft | 410 kts | 339° |
| 2026-05-04 09:27 | 42.27215 | 22.26336 | 35599 ft | 410 kts | 339° |
| 2026-05-04 09:27 | 42.29849 | 22.24839 | 35773 ft | 410 kts | 339° |
| 2026-05-04 09:27 | 42.32484 | 22.23354 | 35949 ft | 410 kts | 340° |
| 2026-05-04 09:28 | 42.35148 | 22.21926 | 36116 ft | 410 kts | 341° |
| 2026-05-04 09:28 | 42.37789 | 22.20564 | 36173 ft | 412 kts | 341° |
| 2026-05-04 09:28 | 42.43173 | 22.17824 | 36184 ft | 413 kts | 341° |
| 2026-05-04 09:29 | 42.48519 | 22.15062 | 36181 ft | 413 kts | 341° |
| 2026-05-04 09:29 | 42.53900 | 22.12251 | 36189 ft | 413 kts | 341° |
| 2026-05-04 09:30 | 42.59279 | 22.09422 | 36191 ft | 414 kts | 341° |
| 2026-05-04 09:30 | 42.64622 | 22.06610 | 36196 ft | 414 kts | 341° |
| 2026-05-04 09:31 | 42.69998 | 22.03783 | 36202 ft | 414 kts | 341° |
| 2026-05-04 09:31 | 42.75349 | 22.00958 | 36203 ft | 414 kts | 341° |
| 2026-05-04 09:32 | 42.80713 | 21.98121 | 36198 ft | 413 kts | 341° |
| 2026-05-04 09:34 | 43.02137 | 21.86765 | 36204 ft | 413 kts | 341° |
| 2026-05-04 09:34 | 43.07470 | 21.83926 | 36205 ft | 413 kts | 341° |
| 2026-05-04 09:35 | 43.12843 | 21.81055 | 36206 ft | 413 kts | 340° |
| 2026-05-04 09:35 | 43.18206 | 21.78181 | 36211 ft | 413 kts | 341° |
| 2026-05-04 09:37 | 43.39620 | 21.66664 | 36216 ft | 415 kts | 340° |
| 2026-05-04 09:38 | 43.45007 | 21.63760 | 36212 ft | 415 kts | 340° |
| 2026-05-04 09:38 | 43.50390 | 21.60850 | 36205 ft | 415 kts | 340° |
| 2026-05-04 09:39 | 43.55737 | 21.57948 | 36200 ft | 415 kts | 340° |
| 2026-05-04 09:39 | 43.61126 | 21.55025 | 36196 ft | 416 kts | 340° |
| 2026-05-04 09:40 | 43.66511 | 21.52085 | 36189 ft | 416 kts | 340° |
| 2026-05-04 09:40 | 43.71910 | 21.49141 | 36188 ft | 417 kts | 340° |
| 2026-05-04 09:42 | 43.93524 | 21.37288 | 36191 ft | 418 kts | 340° |
| 2026-05-04 09:43 | 43.98907 | 21.34326 | 36194 ft | 418 kts | 340° |
| 2026-05-04 09:43 | 44.04320 | 21.31335 | 36190 ft | 418 kts | 340° |
| 2026-05-04 09:44 | 44.09747 | 21.28337 | 36195 ft | 418 kts | 340° |
| 2026-05-04 09:46 | 44.31375 | 21.16325 | 36199 ft | 418 kts | 340° |
| 2026-05-04 09:46 | 44.36749 | 21.13326 | 36187 ft | 418 kts | 340° |
| 2026-05-04 09:47 | 44.42161 | 21.10294 | 36196 ft | 418 kts | 340° |
| 2026-05-04 09:49 | 44.63760 | 20.98144 | 36185 ft | 418 kts | 340° |
| 2026-05-04 09:51 | 44.81706 | 20.87967 | 36176 ft | 418 kts | 340° |
| 2026-05-04 09:51 | 44.87105 | 20.84893 | 36170 ft | 418 kts | 340° |
| 2026-05-04 09:52 | 44.92477 | 20.81718 | 36167 ft | 419 kts | 332° |
| 2026-05-04 09:52 | 44.94846 | 20.79286 | 36167 ft | 423 kts | 321° |
| 2026-05-04 09:52 | 44.97061 | 20.76528 | 36164 ft | 424 kts | 321° |
| 2026-05-04 09:53 | 45.01439 | 20.71008 | 36166 ft | 424 kts | 321° |
| 2026-05-04 09:53 | 45.05847 | 20.65422 | 36165 ft | 424 kts | 321° |
| 2026-05-04 09:54 | 45.10249 | 20.59846 | 36166 ft | 425 kts | 321° |
| 2026-05-04 09:54 | 45.14627 | 20.54293 | 36166 ft | 425 kts | 321° |
| 2026-05-04 09:55 | 45.19023 | 20.48698 | 36166 ft | 425 kts | 321° |
| 2026-05-04 09:55 | 45.23423 | 20.43094 | 36171 ft | 425 kts | 320° |
| 2026-05-04 09:56 | 45.27823 | 20.37469 | 36169 ft | 425 kts | 320° |
| 2026-05-04 09:56 | 45.32184 | 20.31876 | 36169 ft | 425 kts | 320° |
| 2026-05-04 09:57 | 45.36576 | 20.26232 | 36166 ft | 425 kts | 320° |
| 2026-05-04 09:57 | 45.40941 | 20.20620 | 36169 ft | 425 kts | 320° |
| 2026-05-04 09:58 | 45.45336 | 20.14971 | 36159 ft | 425 kts | 320° |
| 2026-05-04 09:58 | 45.49725 | 20.09308 | 36160 ft | 425 kts | 320° |
| 2026-05-04 10:00 | 45.67154 | 19.86665 | 36154 ft | 424 kts | 320° |
| 2026-05-04 10:04 | 45.97634 | 19.46580 | 36144 ft | 426 kts | 319° |
| 2026-05-04 10:04 | 46.02005 | 19.40802 | 36145 ft | 426 kts | 319° |
| 2026-05-04 10:05 | 46.06363 | 19.35014 | 36147 ft | 426 kts | 319° |
| 2026-05-04 10:05 | 46.10724 | 19.29203 | 36145 ft | 426 kts | 319° |
| 2026-05-04 10:06 | 46.15051 | 19.23424 | 36141 ft | 427 kts | 319° |
| 2026-05-04 10:06 | 46.19414 | 19.17592 | 36139 ft | 427 kts | 319° |
| 2026-05-04 10:08 | 46.34639 | 18.97122 | 36142 ft | 428 kts | 318° |
| 2026-05-04 10:08 | 46.38997 | 18.91226 | 36141 ft | 428 kts | 318° |
| 2026-05-04 10:09 | 46.43326 | 18.85345 | 36143 ft | 428 kts | 318° |
| 2026-05-04 10:09 | 46.47673 | 18.79447 | 36142 ft | 428 kts | 318° |
| 2026-05-04 10:10 | 46.51986 | 18.73577 | 36138 ft | 427 kts | 318° |
| 2026-05-04 10:10 | 46.56324 | 18.67657 | 36139 ft | 427 kts | 318° |
| 2026-05-04 10:11 | 46.60655 | 18.61727 | 36134 ft | 427 kts | 317° |
| 2026-05-04 10:11 | 46.64962 | 18.55821 | 36130 ft | 427 kts | 317° |
| 2026-05-04 10:12 | 46.69284 | 18.49890 | 36128 ft | 427 kts | 317° |
| 2026-05-04 10:12 | 46.73611 | 18.43935 | 36125 ft | 427 kts | 317° |
| 2026-05-04 10:13 | 46.77928 | 18.37973 | 36122 ft | 427 kts | 317° |
| 2026-05-04 10:13 | 46.82217 | 18.32046 | 36073 ft | 426 kts | 317° |
| 2026-05-04 10:14 | 46.84379 | 18.29051 | 35434 ft | 426 kts | 317° |
| 2026-05-04 10:14 | 46.86539 | 18.26056 | 34671 ft | 427 kts | 317° |
| 2026-05-04 10:16 | 47.01802 | 18.04771 | 28471 ft | 437 kts | 317° |
| 2026-05-04 10:16 | 47.03992 | 18.01712 | 27763 ft | 433 kts | 317° |
| 2026-05-04 10:16 | 47.06162 | 17.98671 | 27094 ft | 429 kts | 317° |
| 2026-05-04 10:16 | 47.08310 | 17.95654 | 26432 ft | 425 kts | 317° |
| 2026-05-04 10:17 | 47.10437 | 17.92663 | 25822 ft | 422 kts | 317° |
| 2026-05-04 10:17 | 47.12521 | 17.89723 | 25208 ft | 419 kts | 317° |
| 2026-05-04 10:19 | 47.26937 | 17.69351 | 20993 ft | 402 kts | 317° |
| 2026-05-04 10:19 | 47.28945 | 17.66494 | 20454 ft | 400 kts | 316° |
| 2026-05-04 10:19 | 47.30942 | 17.63651 | 19933 ft | 397 kts | 316° |
| 2026-05-04 10:19 | 47.32925 | 17.60821 | 19426 ft | 395 kts | 316° |
| 2026-05-04 10:20 | 47.34899 | 17.58007 | 18920 ft | 392 kts | 316° |
| 2026-05-04 10:20 | 47.36837 | 17.55246 | 18435 ft | 390 kts | 316° |
| 2026-05-04 10:20 | 47.38790 | 17.52465 | 17886 ft | 388 kts | 316° |
| 2026-05-04 10:20 | 47.40725 | 17.49705 | 17350 ft | 386 kts | 316° |
| 2026-05-04 10:21 | 47.42648 | 17.46950 | 16823 ft | 384 kts | 315° |
| 2026-05-04 10:21 | 47.44560 | 17.44207 | 16299 ft | 381 kts | 315° |
| 2026-05-04 10:21 | 47.46458 | 17.41485 | 15786 ft | 379 kts | 315° |
| 2026-05-04 10:21 | 47.48352 | 17.38765 | 15291 ft | 378 kts | 315° |
| 2026-05-04 10:22 | 47.52076 | 17.33405 | 14330 ft | 374 kts | 315° |
| 2026-05-04 10:22 | 47.53937 | 17.30726 | 13848 ft | 372 kts | 315° |
| 2026-05-04 10:22 | 47.55793 | 17.28054 | 13323 ft | 370 kts | 315° |
| 2026-05-04 10:23 | 47.57634 | 17.25401 | 12827 ft | 367 kts | 315° |
| 2026-05-04 10:23 | 47.59454 | 17.22776 | 12319 ft | 364 kts | 315° |
| 2026-05-04 10:25 | 47.71824 | 17.05237 | 9661 ft | 327 kts | 325° |
| 2026-05-04 10:25 | 47.73767 | 17.03585 | 9533 ft | 317 kts | 332° |
| 2026-05-04 10:25 | 47.75701 | 17.02131 | 9402 ft | 305 kts | 332° |
| 2026-05-04 10:25 | 47.77574 | 17.00714 | 9180 ft | 298 kts | 332° |
| 2026-05-04 10:26 | 47.79408 | 16.99318 | 8840 ft | 295 kts | 331° |
| 2026-05-04 10:26 | 47.81235 | 16.97924 | 8468 ft | 294 kts | 331° |
| 2026-05-04 10:26 | 47.83025 | 16.96560 | 8083 ft | 292 kts | 331° |
| 2026-05-04 10:26 | 47.84820 | 16.95192 | 7780 ft | 291 kts | 331° |
| 2026-05-04 10:27 | 47.86624 | 16.93815 | 7531 ft | 290 kts | 331° |
| 2026-05-04 10:27 | 47.88425 | 16.92439 | 7284 ft | 289 kts | 330° |
| 2026-05-04 10:27 | 47.90216 | 16.91070 | 7040 ft | 289 kts | 331° |
| 2026-05-04 10:27 | 47.92005 | 16.89702 | 6795 ft | 289 kts | 330° |
| 2026-05-04 10:28 | 47.93774 | 16.88350 | 6557 ft | 288 kts | 330° |
| 2026-05-04 10:28 | 47.95559 | 16.86984 | 6303 ft | 287 kts | 330° |
| 2026-05-04 10:28 | 47.97335 | 16.85625 | 6049 ft | 286 kts | 331° |
| 2026-05-04 10:28 | 47.99108 | 16.84270 | 5815 ft | 286 kts | 330° |
| 2026-05-04 10:29 | 48.00884 | 16.82907 | 5555 ft | 286 kts | 331° |
| 2026-05-04 10:29 | 48.02628 | 16.81569 | 5237 ft | 284 kts | 330° |
| 2026-05-04 10:29 | 48.04384 | 16.80223 | 4892 ft | 282 kts | 330° |
| 2026-05-04 10:29 | 48.06128 | 16.78882 | 4716 ft | 284 kts | 330° |
| 2026-05-04 10:30 | 48.07882 | 16.77530 | 4532 ft | 283 kts | 330° |
| 2026-05-04 10:30 | 48.09633 | 16.76180 | 4360 ft | 283 kts | 331° |
| 2026-05-04 10:30 | 48.11387 | 16.74826 | 4181 ft | 284 kts | 332° |
| 2026-05-04 10:30 | 48.13109 | 16.73495 | 3997 ft | 281 kts | 331° |
| 2026-05-04 10:31 | 48.14847 | 16.72150 | 3825 ft | 282 kts | 330° |
| 2026-05-04 10:31 | 48.16581 | 16.70807 | 3640 ft | 280 kts | 331° |
| 2026-05-04 10:32 | 48.26497 | 16.63112 | 2999 ft | 238 kts | 310° |
| 2026-05-04 10:33 | 48.27248 | 16.61048 | 3003 ft | 219 kts | 276° |
| 2026-05-04 10:33 | 48.27236 | 16.58791 | 3009 ft | 215 kts | 258° |
| 2026-05-04 10:33 | 48.27193 | 16.58265 | 3001 ft | 214 kts | 257° |
| 2026-05-04 10:33 | 48.27079 | 16.57240 | 2999 ft | 213 kts | 255° |
| 2026-05-04 10:34 | 48.26661 | 16.55136 | 3003 ft | 206 kts | 232° |
| 2026-05-04 10:34 | 48.25617 | 16.53783 | 3008 ft | 198 kts | 201° |
| 2026-05-04 10:34 | 48.24315 | 16.53170 | 2946 ft | 194 kts | 185° |
| 2026-05-04 10:34 | 48.22996 | 16.53182 | 2801 ft | 187 kts | 170° |
| 2026-05-04 10:35 | 48.21755 | 16.53667 | 2551 ft | 183 kts | 162° |
| 2026-05-04 10:35 | 48.20551 | 16.54179 | 2319 ft | 175 kts | 163° |
| 2026-05-04 10:35 | 48.19423 | 16.54658 | 2091 ft | 165 kts | 162° |
| 2026-05-04 10:35 | 48.18357 | 16.55110 | 1901 ft | 153 kts | 162° |
| 2026-05-04 10:36 | 48.17588 | 16.55434 | 1736 ft | 143 kts | 162° |
| 2026-05-04 10:36 | 48.16649 | 16.55834 | 1547 ft | 138 kts | 165° |
| 2026-05-04 10:36 | 48.15734 | 16.56223 | 1379 ft | 136 kts | 162° |
| 2026-05-04 10:36 | 48.14827 | 16.56610 | 1213 ft | 135 kts | 161° |
| 2026-05-04 10:37 | 48.13923 | 16.56984 | 1009 ft | 134 kts | 159° |
| 2026-05-04 10:37 | 48.13016 | 16.57371 | 860 ft | 136 kts | 161° |
| 2026-05-04 10:37 | 48.12128 | 16.57748 | 681 ft | 134 kts | 161° |
| 2026-05-04 10:37 | 48.11282 | 16.58113 | 619 ft | 114 kts | 162° |
| 2026-05-04 10:39 | 48.10248 | 16.58270 | 623 ft | 11 kts | 343° |
| 2026-05-04 10:39 | 48.10335 | 16.58233 | 619 ft | 22 kts | 343° |
| 2026-05-04 10:39 | 48.10455 | 16.58182 | 619 ft | 15 kts | 345° |
| 2026-05-04 10:40 | 48.10550 | 16.58142 | 614 ft | 14 kts | 343° |
| 2026-05-04 10:40 | 48.10636 | 16.58106 | 610 ft | 12 kts | 344° |
| 2026-05-04 10:40 | 48.10713 | 16.58072 | 620 ft | 11 kts | 343° |
| 2026-05-04 10:40 | 48.10780 | 16.58047 | 619 ft | 9 kts | 340° |
| 2026-05-04 10:41 | 48.10837 | 16.58021 | 613 ft | 8 kts | 344° |
| 2026-05-04 10:41 | 48.10891 | 16.57998 | 614 ft | 8 kts | 344° |
| 2026-05-04 10:41 | 48.10954 | 16.57971 | 624 ft | 12 kts | 344° |
| 2026-05-04 10:41 | 48.11038 | 16.57936 | 621 ft | 13 kts | 344° |
| 2026-05-04 10:42 | 48.11100 | 16.57910 | 621 ft | 14 kts | 344° |
| 2026-05-04 10:42 | 48.11219 | 16.57860 | 619 ft | 12 kts | 344° |
| 2026-05-04 10:42 | 48.11273 | 16.57836 | 621 ft | 12 kts | 344° |
| 2026-05-04 10:42 | 48.11345 | 16.57806 | 613 ft | 11 kts | 344° |
| 2026-05-04 10:43 | 48.11419 | 16.57775 | 620 ft | 11 kts | 344° |
| 2026-05-04 10:44 | 48.11811 | 16.57421 | 615 ft | 13 kts | 254° |
| 2026-05-04 10:45 | 48.11827 | 16.57298 | 616 ft | 12 kts | 296° |
| 2026-05-04 10:45 | 48.11852 | 16.57180 | 610 ft | 13 kts | 268° |
| 2026-05-04 10:45 | 48.11883 | 16.57056 | 612 ft | 13 kts | 297° |
| 2026-05-04 10:45 | 48.11921 | 16.56937 | 613 ft | 13 kts | 296° |
| 2026-05-04 10:46 | 48.11940 | 16.56874 | 618 ft | 4 kts | 278° |
| 2026-05-04 10:46 | 48.11919 | 16.56850 | 613 ft | 5 kts | 208° |
| 2026-05-04 10:46 | 48.11891 | 16.56830 | 613 ft | 3 kts | 207° |
| 2026-05-04 10:46 | 48.11877 | 16.56820 | 610 ft | 0 kts | 206° |